sensor_id;sensor_type;location;lat;lon;timestamp;pressure;altitude;pressure_sealevel;temperature;humidity
75089;BME280;63673;49.928;8.150;2023-04-29T00:00:22;987.75;;;9.83;100
75089;BME280;63673;49.928;8.150;2023-04-29T00:01:23;987.75;;;9.82;100
75089;BME280;63673;49.928;8.150;2023-04-29T00:03:46;987.78;;;9.79;100
75089;BME280;63673;49.928;8.150;2023-04-29T00:04:48;987.76;;;9.78;100
75089;BME280;63673;49.928;8.150;2023-04-29T00:05:50;987.74;;;9.77;100
75089;BME280;63673;49.928;8.150;2023-04-29T00:06:52;987.67;;;9.76;100
75089;BME280;63673;49.928;8.150;2023-04-29T00:07:53;987.7;;;9.74;100
75089;BME280;63673;49.928;8.150;2023-04-29T00:08:55;987.76;;;9.72;100
75089;BME280;63673;49.928;8.150;2023-04-29T00:09:57;987.74;;;9.7;100
75089;BME280;63673;49.928;8.150;2023-04-29T00:10:59;987.72;;;9.67;100
75089;BME280;63673;49.928;8.150;2023-04-29T00:12:00;987.66;;;9.66;100
75089;BME280;63673;49.928;8.150;2023-04-29T00:13:02;987.67;;;9.63;100
75089;BME280;63673;49.928;8.150;2023-04-29T00:14:04;987.76;;;9.61;100
75089;BME280;63673;49.928;8.150;2023-04-29T00:15:06;987.78;;;9.59;100
75089;BME280;63673;49.928;8.150;2023-04-29T00:16:07;987.77;;;9.57;100
75089;BME280;63673;49.928;8.150;2023-04-29T00:17:09;987.73;;;9.55;100
75089;BME280;63673;49.928;8.150;2023-04-29T00:18:11;987.73;;;9.53;100
75089;BME280;63673;49.928;8.150;2023-04-29T00:19:12;987.78;;;9.52;100
75089;BME280;63673;49.928;8.150;2023-04-29T00:20:14;987.69;;;9.51;100
75089;BME280;63673;49.928;8.150;2023-04-29T00:21:16;987.72;;;9.5;100
75089;BME280;63673;49.928;8.150;2023-04-29T00:22:18;987.68;;;9.49;100
75089;BME280;63673;49.928;8.150;2023-04-29T00:23:19;987.71;;;9.47;100
75089;BME280;63673;49.928;8.150;2023-04-29T00:24:21;987.66;;;9.47;100
75089;BME280;63673;49.928;8.150;2023-04-29T00:25:23;987.66;;;9.45;100
75089;BME280;63673;49.928;8.150;2023-04-29T00:26:25;987.67;;;9.43;100
75089;BME280;63673;49.928;8.150;2023-04-29T00:27:26;987.67;;;9.43;100
75089;BME280;63673;49.928;8.150;2023-04-29T00:28:28;987.7;;;9.41;100
75089;BME280;63673;49.928;8.150;2023-04-29T00:29:35;987.68;;;9.38;100
75089;BME280;63673;49.928;8.150;2023-04-29T00:30:36;987.72;;;9.37;100
75089;BME280;63673;49.928;8.150;2023-04-29T00:31:38;987.71;;;9.37;100
75089;BME280;63673;49.928;8.150;2023-04-29T00:32:40;987.71;;;9.35;100
75089;BME280;63673;49.928;8.150;2023-04-29T00:33:42;987.77;;;9.35;100
75089;BME280;63673;49.928;8.150;2023-04-29T00:34:43;987.76;;;9.37;100
75089;BME280;63673;49.928;8.150;2023-04-29T00:35:45;987.72;;;9.38;100
75089;BME280;63673;49.928;8.150;2023-04-29T00:36:47;987.79;;;9.42;100
75089;BME280;63673;49.928;8.150;2023-04-29T00:37:49;987.75;;;9.45;100
75089;BME280;63673;49.928;8.150;2023-04-29T00:38:50;987.73;;;9.48;100
75089;BME280;63673;49.928;8.150;2023-04-29T00:39:52;987.72;;;9.52;100
75089;BME280;63673;49.928;8.150;2023-04-29T00:40:54;987.72;;;9.56;100
75089;BME280;63673;49.928;8.150;2023-04-29T00:41:56;987.75;;;9.58;100
75089;BME280;63673;49.928;8.150;2023-04-29T00:42:57;987.7;;;9.61;100
75089;BME280;63673;49.928;8.150;2023-04-29T00:43:59;987.72;;;9.64;100
75089;BME280;63673;49.928;8.150;2023-04-29T00:45:01;987.71;;;9.66;100
75089;BME280;63673;49.928;8.150;2023-04-29T00:46:02;987.7;;;9.68;100
75089;BME280;63673;49.928;8.150;2023-04-29T00:47:04;987.74;;;9.69;100
75089;BME280;63673;49.928;8.150;2023-04-29T00:48:06;987.74;;;9.7;100
75089;BME280;63673;49.928;8.150;2023-04-29T00:49:08;987.7;;;9.7;100
75089;BME280;63673;49.928;8.150;2023-04-29T00:50:09;987.68;;;9.7;100
75089;BME280;63673;49.928;8.150;2023-04-29T00:51:11;987.7;;;9.7;100
75089;BME280;63673;49.928;8.150;2023-04-29T00:52:13;987.69;;;9.69;100
75089;BME280;63673;49.928;8.150;2023-04-29T00:53:15;987.74;;;9.68;100
75089;BME280;63673;49.928;8.150;2023-04-29T00:54:16;987.75;;;9.67;100
75089;BME280;63673;49.928;8.150;2023-04-29T00:55:18;987.66;;;9.66;100
75089;BME280;63673;49.928;8.150;2023-04-29T00:56:20;987.71;;;9.66;100
75089;BME280;63673;49.928;8.150;2023-04-29T00:57:22;987.72;;;9.64;100
75089;BME280;63673;49.928;8.150;2023-04-29T00:58:23;987.73;;;9.63;100
75089;BME280;63673;49.928;8.150;2023-04-29T00:59:25;987.73;;;9.62;100
75089;BME280;63673;49.928;8.150;2023-04-29T01:00:27;987.71;;;9.62;100
75089;BME280;63673;49.928;8.150;2023-04-29T01:01:28;987.74;;;9.6;100
75089;BME280;63673;49.928;8.150;2023-04-29T01:02:30;987.71;;;9.59;100
75089;BME280;63673;49.928;8.150;2023-04-29T01:03:32;987.74;;;9.58;100
75089;BME280;63673;49.928;8.150;2023-04-29T01:04:34;987.76;;;9.57;100
75089;BME280;63673;49.928;8.150;2023-04-29T01:05:35;987.77;;;9.55;100
75089;BME280;63673;49.928;8.150;2023-04-29T01:06:40;987.73;;;9.55;100
75089;BME280;63673;49.928;8.150;2023-04-29T01:07:41;987.77;;;9.53;100
75089;BME280;63673;49.928;8.150;2023-04-29T01:08:43;987.77;;;9.51;100
75089;BME280;63673;49.928;8.150;2023-04-29T01:09:46;987.82;;;9.51;100
75089;BME280;63673;49.928;8.150;2023-04-29T01:10:47;987.82;;;9.48;100
75089;BME280;63673;49.928;8.150;2023-04-29T01:11:53;987.82;;;9.46;100
75089;BME280;63673;49.928;8.150;2023-04-29T01:12:49;987.79;;;9.45;100
75089;BME280;63673;49.928;8.150;2023-04-29T01:13:50;987.81;;;9.43;100
75089;BME280;63673;49.928;8.150;2023-04-29T01:14:53;987.78;;;9.41;100
75089;BME280;63673;49.928;8.150;2023-04-29T01:15:54;987.85;;;9.39;100
75089;BME280;63673;49.928;8.150;2023-04-29T01:16:55;987.85;;;9.36;100
75089;BME280;63673;49.928;8.150;2023-04-29T01:17:58;987.81;;;9.34;100
75089;BME280;63673;49.928;8.150;2023-04-29T01:18:58;987.83;;;9.31;100
75089;BME280;63673;49.928;8.150;2023-04-29T01:20:00;987.78;;;9.3;100
75089;BME280;63673;49.928;8.150;2023-04-29T01:21:01;987.86;;;9.28;100
75089;BME280;63673;49.928;8.150;2023-04-29T01:22:03;987.82;;;9.26;100
75089;BME280;63673;49.928;8.150;2023-04-29T01:23:05;987.8;;;9.25;100
75089;BME280;63673;49.928;8.150;2023-04-29T01:24:07;987.78;;;9.23;100
75089;BME280;63673;49.928;8.150;2023-04-29T01:25:08;987.83;;;9.22;100
75089;BME280;63673;49.928;8.150;2023-04-29T01:26:10;987.79;;;9.19;100
75089;BME280;63673;49.928;8.150;2023-04-29T01:27:13;987.78;;;9.16;100
75089;BME280;63673;49.928;8.150;2023-04-29T01:28:17;987.85;;;9.14;100
75089;BME280;63673;49.928;8.150;2023-04-29T01:29:20;987.86;;;9.11;100
75089;BME280;63673;49.928;8.150;2023-04-29T01:30:19;987.85;;;9.09;100
75089;BME280;63673;49.928;8.150;2023-04-29T01:31:21;987.9;;;9.06;100
75089;BME280;63673;49.928;8.150;2023-04-29T01:32:22;987.87;;;9.05;100
75089;BME280;63673;49.928;8.150;2023-04-29T01:33:26;987.88;;;9.02;100
75089;BME280;63673;49.928;8.150;2023-04-29T01:34:25;987.92;;;9;100
75089;BME280;63673;49.928;8.150;2023-04-29T01:35:29;987.91;;;8.98;100
75089;BME280;63673;49.928;8.150;2023-04-29T01:36:29;987.92;;;8.96;100
75089;BME280;63673;49.928;8.150;2023-04-29T01:37:32;987.93;;;8.94;100
75089;BME280;63673;49.928;8.150;2023-04-29T01:38:33;987.94;;;8.92;100
75089;BME280;63673;49.928;8.150;2023-04-29T01:39:35;987.91;;;8.9;100
75089;BME280;63673;49.928;8.150;2023-04-29T01:40:36;987.95;;;8.89;100
75089;BME280;63673;49.928;8.150;2023-04-29T01:41:38;987.93;;;8.87;100
75089;BME280;63673;49.928;8.150;2023-04-29T01:42:39;987.92;;;8.85;100
75089;BME280;63673;49.928;8.150;2023-04-29T01:43:40;987.91;;;8.83;100
75089;BME280;63673;49.928;8.150;2023-04-29T01:44:41;987.9;;;8.82;100
75089;BME280;63673;49.928;8.150;2023-04-29T01:45:43;987.85;;;8.81;100
75089;BME280;63673;49.928;8.150;2023-04-29T01:46:46;987.9;;;8.8;100
75089;BME280;63673;49.928;8.150;2023-04-29T01:47:46;987.85;;;8.79;100
75089;BME280;63673;49.928;8.150;2023-04-29T01:48:51;987.85;;;8.8;100
75089;BME280;63673;49.928;8.150;2023-04-29T01:49:50;987.79;;;8.79;100
75089;BME280;63673;49.928;8.150;2023-04-29T01:50:52;987.84;;;8.78;100
75089;BME280;63673;49.928;8.150;2023-04-29T01:51:54;987.85;;;8.79;100
75089;BME280;63673;49.928;8.150;2023-04-29T01:52:55;987.91;;;8.78;100
75089;BME280;63673;49.928;8.150;2023-04-29T01:53:57;987.83;;;8.79;100
75089;BME280;63673;49.928;8.150;2023-04-29T01:54:59;987.86;;;8.79;100
75089;BME280;63673;49.928;8.150;2023-04-29T01:56:00;987.87;;;8.79;100
75089;BME280;63673;49.928;8.150;2023-04-29T01:57:02;987.86;;;8.79;100
75089;BME280;63673;49.928;8.150;2023-04-29T01:58:04;987.89;;;8.78;100
75089;BME280;63673;49.928;8.150;2023-04-29T01:59:06;987.88;;;8.78;100
75089;BME280;63673;49.928;8.150;2023-04-29T02:00:07;987.86;;;8.77;100
75089;BME280;63673;49.928;8.150;2023-04-29T02:01:09;987.88;;;8.76;100
75089;BME280;63673;49.928;8.150;2023-04-29T02:02:11;987.9;;;8.74;100
75089;BME280;63673;49.928;8.150;2023-04-29T02:03:13;987.89;;;8.73;100
75089;BME280;63673;49.928;8.150;2023-04-29T02:04:14;987.88;;;8.71;100
75089;BME280;63673;49.928;8.150;2023-04-29T02:05:16;987.91;;;8.7;100
75089;BME280;63673;49.928;8.150;2023-04-29T02:06:18;987.91;;;8.67;100
75089;BME280;63673;49.928;8.150;2023-04-29T02:07:20;987.93;;;8.64;100
75089;BME280;63673;49.928;8.150;2023-04-29T02:08:21;987.87;;;8.61;100
75089;BME280;63673;49.928;8.150;2023-04-29T02:09:23;987.94;;;8.57;100
75089;BME280;63673;49.928;8.150;2023-04-29T02:10:25;987.88;;;8.56;100
75089;BME280;63673;49.928;8.150;2023-04-29T02:11:26;987.98;;;8.53;100
75089;BME280;63673;49.928;8.150;2023-04-29T02:12:28;987.95;;;8.5;100
75089;BME280;63673;49.928;8.150;2023-04-29T02:13:30;987.96;;;8.49;100
75089;BME280;63673;49.928;8.150;2023-04-29T02:14:32;987.98;;;8.47;100
75089;BME280;63673;49.928;8.150;2023-04-29T02:15:33;987.97;;;8.46;100
75089;BME280;63673;49.928;8.150;2023-04-29T02:16:35;987.99;;;8.45;100
75089;BME280;63673;49.928;8.150;2023-04-29T02:17:37;987.98;;;8.44;100
75089;BME280;63673;49.928;8.150;2023-04-29T02:18:39;987.99;;;8.43;100
75089;BME280;63673;49.928;8.150;2023-04-29T02:19:40;987.97;;;8.43;100
75089;BME280;63673;49.928;8.150;2023-04-29T02:20:42;988;;;8.43;100
75089;BME280;63673;49.928;8.150;2023-04-29T02:21:44;987.94;;;8.44;100
75089;BME280;63673;49.928;8.150;2023-04-29T02:22:45;988.03;;;8.44;100
75089;BME280;63673;49.928;8.150;2023-04-29T02:23:47;988;;;8.44;100
75089;BME280;63673;49.928;8.150;2023-04-29T02:24:49;988.04;;;8.46;100
75089;BME280;63673;49.928;8.150;2023-04-29T02:25:51;987.98;;;8.45;100
75089;BME280;63673;49.928;8.150;2023-04-29T02:26:52;988.03;;;8.46;100
75089;BME280;63673;49.928;8.150;2023-04-29T02:27:54;988.02;;;8.46;100
75089;BME280;63673;49.928;8.150;2023-04-29T02:28:56;988.02;;;8.48;100
75089;BME280;63673;49.928;8.150;2023-04-29T02:29:58;988.04;;;8.5;100
75089;BME280;63673;49.928;8.150;2023-04-29T02:30:59;988.04;;;8.51;100
75089;BME280;63673;49.928;8.150;2023-04-29T02:32:01;988.09;;;8.52;100
75089;BME280;63673;49.928;8.150;2023-04-29T02:33:03;988.05;;;8.53;100
75089;BME280;63673;49.928;8.150;2023-04-29T02:34:05;988.09;;;8.56;100
75089;BME280;63673;49.928;8.150;2023-04-29T02:35:06;988.12;;;8.57;100
75089;BME280;63673;49.928;8.150;2023-04-29T02:36:08;988.08;;;8.58;100
75089;BME280;63673;49.928;8.150;2023-04-29T02:37:10;988.08;;;8.61;100
75089;BME280;63673;49.928;8.150;2023-04-29T02:38:11;988.11;;;8.62;100
75089;BME280;63673;49.928;8.150;2023-04-29T02:39:13;988.13;;;8.65;100
75089;BME280;63673;49.928;8.150;2023-04-29T02:40:15;988.13;;;8.67;100
75089;BME280;63673;49.928;8.150;2023-04-29T02:41:17;988.13;;;8.68;100
75089;BME280;63673;49.928;8.150;2023-04-29T02:42:18;988.17;;;8.71;100
75089;BME280;63673;49.928;8.150;2023-04-29T02:43:20;988.19;;;8.74;100
75089;BME280;63673;49.928;8.150;2023-04-29T02:44:22;988.17;;;8.78;100
75089;BME280;63673;49.928;8.150;2023-04-29T02:45:24;988.2;;;8.8;100
75089;BME280;63673;49.928;8.150;2023-04-29T02:46:25;988.21;;;8.83;100
75089;BME280;63673;49.928;8.150;2023-04-29T02:47:27;988.15;;;8.86;100
75089;BME280;63673;49.928;8.150;2023-04-29T02:48:29;988.19;;;8.89;100
75089;BME280;63673;49.928;8.150;2023-04-29T02:49:31;988.21;;;8.92;100
75089;BME280;63673;49.928;8.150;2023-04-29T02:50:32;988.18;;;8.95;100
75089;BME280;63673;49.928;8.150;2023-04-29T02:51:34;988.2;;;8.98;100
75089;BME280;63673;49.928;8.150;2023-04-29T02:52:36;988.2;;;9.01;100
75089;BME280;63673;49.928;8.150;2023-04-29T02:53:38;988.17;;;9.01;100
75089;BME280;63673;49.928;8.150;2023-04-29T02:54:39;988.21;;;9.07;100
75089;BME280;63673;49.928;8.150;2023-04-29T02:55:41;988.18;;;9.1;100
75089;BME280;63673;49.928;8.150;2023-04-29T02:56:43;988.22;;;9.12;100
75089;BME280;63673;49.928;8.150;2023-04-29T02:57:44;988.22;;;9.15;100
75089;BME280;63673;49.928;8.150;2023-04-29T02:58:46;988.22;;;9.17;100
75089;BME280;63673;49.928;8.150;2023-04-29T02:59:48;988.23;;;9.2;100
75089;BME280;63673;49.928;8.150;2023-04-29T03:00:50;988.25;;;9.22;100
75089;BME280;63673;49.928;8.150;2023-04-29T03:01:51;988.27;;;9.25;100
75089;BME280;63673;49.928;8.150;2023-04-29T03:02:53;988.3;;;9.27;100
75089;BME280;63673;49.928;8.150;2023-04-29T03:03:55;988.28;;;9.28;100
75089;BME280;63673;49.928;8.150;2023-04-29T03:04:57;988.24;;;9.3;100
75089;BME280;63673;49.928;8.150;2023-04-29T03:05:58;988.17;;;9.33;100
75089;BME280;63673;49.928;8.150;2023-04-29T03:07:00;988.26;;;9.34;100
75089;BME280;63673;49.928;8.150;2023-04-29T03:08:02;988.23;;;9.36;100
75089;BME280;63673;49.928;8.150;2023-04-29T03:09:03;988.26;;;9.38;100
75089;BME280;63673;49.928;8.150;2023-04-29T03:10:06;988.29;;;9.4;100
75089;BME280;63673;49.928;8.150;2023-04-29T03:11:07;988.24;;;9.42;100
75089;BME280;63673;49.928;8.150;2023-04-29T03:12:09;988.27;;;9.44;100
75089;BME280;63673;49.928;8.150;2023-04-29T03:13:10;988.25;;;9.45;100
75089;BME280;63673;49.928;8.150;2023-04-29T03:14:12;988.31;;;9.46;100
75089;BME280;63673;49.928;8.150;2023-04-29T03:15:14;988.28;;;9.48;100
75089;BME280;63673;49.928;8.150;2023-04-29T03:16:16;988.32;;;9.5;100
75089;BME280;63673;49.928;8.150;2023-04-29T03:17:17;988.32;;;9.52;100
75089;BME280;63673;49.928;8.150;2023-04-29T03:18:19;988.31;;;9.54;100
75089;BME280;63673;49.928;8.150;2023-04-29T03:19:21;988.3;;;9.55;100
75089;BME280;63673;49.928;8.150;2023-04-29T03:20:23;988.31;;;9.57;100
75089;BME280;63673;49.928;8.150;2023-04-29T03:21:24;988.27;;;9.59;100
75089;BME280;63673;49.928;8.150;2023-04-29T03:22:26;988.32;;;9.62;100
75089;BME280;63673;49.928;8.150;2023-04-29T03:23:28;988.29;;;9.65;100
75089;BME280;63673;49.928;8.150;2023-04-29T03:24:29;988.33;;;9.66;100
75089;BME280;63673;49.928;8.150;2023-04-29T03:25:31;988.34;;;9.68;100
75089;BME280;63673;49.928;8.150;2023-04-29T03:26:33;988.33;;;9.71;100
75089;BME280;63673;49.928;8.150;2023-04-29T03:27:35;988.34;;;9.74;100
75089;BME280;63673;49.928;8.150;2023-04-29T03:28:36;988.36;;;9.75;100
75089;BME280;63673;49.928;8.150;2023-04-29T03:29:38;988.34;;;9.78;100
75089;BME280;63673;49.928;8.150;2023-04-29T03:30:40;988.34;;;9.79;100
75089;BME280;63673;49.928;8.150;2023-04-29T03:31:42;988.37;;;9.81;100
75089;BME280;63673;49.928;8.150;2023-04-29T03:32:43;988.37;;;9.83;100
75089;BME280;63673;49.928;8.150;2023-04-29T03:33:45;988.33;;;9.85;100
75089;BME280;63673;49.928;8.150;2023-04-29T03:34:47;988.3;;;9.86;100
75089;BME280;63673;49.928;8.150;2023-04-29T03:35:49;988.29;;;9.88;100
75089;BME280;63673;49.928;8.150;2023-04-29T03:36:50;988.33;;;9.9;100
75089;BME280;63673;49.928;8.150;2023-04-29T03:37:52;988.31;;;9.9;100
75089;BME280;63673;49.928;8.150;2023-04-29T03:38:54;988.35;;;9.91;100
75089;BME280;63673;49.928;8.150;2023-04-29T03:39:55;988.33;;;9.92;100
75089;BME280;63673;49.928;8.150;2023-04-29T03:40:57;988.29;;;9.92;100
75089;BME280;63673;49.928;8.150;2023-04-29T03:41:59;988.29;;;9.94;100
75089;BME280;63673;49.928;8.150;2023-04-29T03:43:01;988.38;;;9.94;100
75089;BME280;63673;49.928;8.150;2023-04-29T03:44:03;988.34;;;9.95;100
75089;BME280;63673;49.928;8.150;2023-04-29T03:45:04;988.32;;;9.96;100
75089;BME280;63673;49.928;8.150;2023-04-29T03:46:06;988.32;;;9.97;100
75089;BME280;63673;49.928;8.150;2023-04-29T03:47:08;988.36;;;9.97;100
75089;BME280;63673;49.928;8.150;2023-04-29T03:48:09;988.37;;;9.98;100
75089;BME280;63673;49.928;8.150;2023-04-29T03:49:11;988.32;;;9.98;100
75089;BME280;63673;49.928;8.150;2023-04-29T03:50:13;988.39;;;9.99;100
75089;BME280;63673;49.928;8.150;2023-04-29T03:51:15;988.36;;;10;100
75089;BME280;63673;49.928;8.150;2023-04-29T03:52:16;988.4;;;10;100
75089;BME280;63673;49.928;8.150;2023-04-29T03:53:18;988.39;;;10.01;100
75089;BME280;63673;49.928;8.150;2023-04-29T03:54:20;988.43;;;10.01;100
75089;BME280;63673;49.928;8.150;2023-04-29T03:55:22;988.48;;;10.01;100
75089;BME280;63673;49.928;8.150;2023-04-29T03:56:23;988.47;;;10.03;100
75089;BME280;63673;49.928;8.150;2023-04-29T03:57:25;988.49;;;10.03;100
75089;BME280;63673;49.928;8.150;2023-04-29T03:58:27;988.5;;;10.03;100
75089;BME280;63673;49.928;8.150;2023-04-29T03:59:28;988.52;;;10.03;100
75089;BME280;63673;49.928;8.150;2023-04-29T04:00:30;988.52;;;10.04;100
75089;BME280;63673;49.928;8.150;2023-04-29T04:01:32;988.56;;;10.04;100
75089;BME280;63673;49.928;8.150;2023-04-29T04:02:34;988.57;;;10.04;100
75089;BME280;63673;49.928;8.150;2023-04-29T04:03:35;988.54;;;10.05;100
75089;BME280;63673;49.928;8.150;2023-04-29T04:04:37;988.56;;;10.05;100
75089;BME280;63673;49.928;8.150;2023-04-29T04:05:39;988.56;;;10.06;100
75089;BME280;63673;49.928;8.150;2023-04-29T04:06:41;988.57;;;10.06;100
75089;BME280;63673;49.928;8.150;2023-04-29T04:07:42;988.58;;;10.07;100
75089;BME280;63673;49.928;8.150;2023-04-29T04:08:44;988.62;;;10.07;100
75089;BME280;63673;49.928;8.150;2023-04-29T04:09:46;988.58;;;10.07;100
75089;BME280;63673;49.928;8.150;2023-04-29T04:10:48;988.62;;;10.07;100
75089;BME280;63673;49.928;8.150;2023-04-29T04:11:49;988.66;;;10.07;100
75089;BME280;63673;49.928;8.150;2023-04-29T04:12:51;988.61;;;10.07;100
75089;BME280;63673;49.928;8.150;2023-04-29T04:13:53;988.65;;;10.08;100
75089;BME280;63673;49.928;8.150;2023-04-29T04:14:54;988.63;;;10.07;100
75089;BME280;63673;49.928;8.150;2023-04-29T04:15:56;988.6;;;10.08;100
75089;BME280;63673;49.928;8.150;2023-04-29T04:16:58;988.7;;;10.08;100
75089;BME280;63673;49.928;8.150;2023-04-29T04:18:00;988.7;;;10.08;100
75089;BME280;63673;49.928;8.150;2023-04-29T04:19:01;988.65;;;10.08;100
75089;BME280;63673;49.928;8.150;2023-04-29T04:20:03;988.64;;;10.08;100
75089;BME280;63673;49.928;8.150;2023-04-29T04:21:05;988.69;;;10.08;100
75089;BME280;63673;49.928;8.150;2023-04-29T04:22:07;988.7;;;10.08;100
75089;BME280;63673;49.928;8.150;2023-04-29T04:23:08;988.69;;;10.08;100
75089;BME280;63673;49.928;8.150;2023-04-29T04:24:10;988.7;;;10.07;100
75089;BME280;63673;49.928;8.150;2023-04-29T04:25:12;988.71;;;10.08;100
75089;BME280;63673;49.928;8.150;2023-04-29T04:26:13;988.7;;;10.08;100
75089;BME280;63673;49.928;8.150;2023-04-29T04:27:15;988.66;;;10.07;100
75089;BME280;63673;49.928;8.150;2023-04-29T04:28:17;988.72;;;10.08;100
75089;BME280;63673;49.928;8.150;2023-04-29T04:29:19;988.72;;;10.08;100
75089;BME280;63673;49.928;8.150;2023-04-29T04:30:20;988.75;;;10.07;100
75089;BME280;63673;49.928;8.150;2023-04-29T04:31:22;988.75;;;10.07;100
75089;BME280;63673;49.928;8.150;2023-04-29T04:32:25;988.72;;;10.07;100
75089;BME280;63673;49.928;8.150;2023-04-29T04:33:26;988.73;;;10.07;100
75089;BME280;63673;49.928;8.150;2023-04-29T04:34:27;988.72;;;10.07;100
75089;BME280;63673;49.928;8.150;2023-04-29T04:35:29;988.75;;;10.06;100
75089;BME280;63673;49.928;8.150;2023-04-29T04:36:31;988.76;;;10.06;100
75089;BME280;63673;49.928;8.150;2023-04-29T04:37:33;988.75;;;10.06;100
75089;BME280;63673;49.928;8.150;2023-04-29T04:38:34;988.76;;;10.06;100
75089;BME280;63673;49.928;8.150;2023-04-29T04:39:37;988.79;;;10.06;100
75089;BME280;63673;49.928;8.150;2023-04-29T04:40:39;988.82;;;10.05;100
75089;BME280;63673;49.928;8.150;2023-04-29T04:41:40;988.83;;;10.05;100
75089;BME280;63673;49.928;8.150;2023-04-29T04:42:41;988.78;;;10.06;100
75089;BME280;63673;49.928;8.150;2023-04-29T04:43:43;988.85;;;10.06;100
75089;BME280;63673;49.928;8.150;2023-04-29T04:44:45;988.78;;;10.06;100
75089;BME280;63673;49.928;8.150;2023-04-29T04:45:46;988.85;;;10.05;100
75089;BME280;63673;49.928;8.150;2023-04-29T04:46:49;988.85;;;10.05;100
75089;BME280;63673;49.928;8.150;2023-04-29T04:47:50;988.88;;;10.04;100
75089;BME280;63673;49.928;8.150;2023-04-29T04:48:52;988.88;;;10.03;100
75089;BME280;63673;49.928;8.150;2023-04-29T04:49:53;988.9;;;10.03;100
75089;BME280;63673;49.928;8.150;2023-04-29T04:50:55;988.87;;;10.02;100
75089;BME280;63673;49.928;8.150;2023-04-29T04:51:57;988.91;;;10.01;100
75089;BME280;63673;49.928;8.150;2023-04-29T04:52:59;988.92;;;9.99;100
75089;BME280;63673;49.928;8.150;2023-04-29T04:54:00;988.96;;;9.98;100
75089;BME280;63673;49.928;8.150;2023-04-29T04:55:02;988.98;;;9.97;100
75089;BME280;63673;49.928;8.150;2023-04-29T04:56:04;988.99;;;9.95;100
75089;BME280;63673;49.928;8.150;2023-04-29T04:57:06;988.93;;;9.91;100
75089;BME280;63673;49.928;8.150;2023-04-29T04:58:07;989.01;;;9.89;100
75089;BME280;63673;49.928;8.150;2023-04-29T04:59:09;989.04;;;9.85;100
75089;BME280;63673;49.928;8.150;2023-04-29T05:00:11;989.08;;;9.81;100
75089;BME280;63673;49.928;8.150;2023-04-29T05:01:12;989.07;;;9.77;100
75089;BME280;63673;49.928;8.150;2023-04-29T05:02:14;989.11;;;9.74;100
75089;BME280;63673;49.928;8.150;2023-04-29T05:03:16;989.11;;;9.71;100
75089;BME280;63673;49.928;8.150;2023-04-29T05:04:18;989.07;;;9.69;100
75089;BME280;63673;49.928;8.150;2023-04-29T05:05:20;989.1;;;9.65;100
75089;BME280;63673;49.928;8.150;2023-04-29T05:06:21;989.15;;;9.61;100
75089;BME280;63673;49.928;8.150;2023-04-29T05:07:23;989.16;;;9.6;100
75089;BME280;63673;49.928;8.150;2023-04-29T05:08:25;989.18;;;9.58;100
75089;BME280;63673;49.928;8.150;2023-04-29T05:09:26;989.19;;;9.56;100
75089;BME280;63673;49.928;8.150;2023-04-29T05:10:28;989.2;;;9.53;100
75089;BME280;63673;49.928;8.150;2023-04-29T05:11:30;989.25;;;9.51;100
75089;BME280;63673;49.928;8.150;2023-04-29T05:12:32;989.28;;;9.5;100
75089;BME280;63673;49.928;8.150;2023-04-29T05:13:33;989.24;;;9.48;100
75089;BME280;63673;49.928;8.150;2023-04-29T05:14:35;989.26;;;9.47;100
75089;BME280;63673;49.928;8.150;2023-04-29T05:15:37;989.24;;;9.46;100
75089;BME280;63673;49.928;8.150;2023-04-29T05:16:39;989.25;;;9.46;100
75089;BME280;63673;49.928;8.150;2023-04-29T05:17:40;989.29;;;9.45;100
75089;BME280;63673;49.928;8.150;2023-04-29T05:18:42;989.29;;;9.46;100
75089;BME280;63673;49.928;8.150;2023-04-29T05:19:44;989.28;;;9.46;100
75089;BME280;63673;49.928;8.150;2023-04-29T05:20:45;989.31;;;9.46;100
75089;BME280;63673;49.928;8.150;2023-04-29T05:21:47;989.37;;;9.47;100
75089;BME280;63673;49.928;8.150;2023-04-29T05:22:49;989.35;;;9.47;100
75089;BME280;63673;49.928;8.150;2023-04-29T05:23:51;989.37;;;9.47;100
75089;BME280;63673;49.928;8.150;2023-04-29T05:24:52;989.35;;;9.48;100
75089;BME280;63673;49.928;8.150;2023-04-29T05:25:54;989.37;;;9.48;100
75089;BME280;63673;49.928;8.150;2023-04-29T05:26:56;989.41;;;9.48;100
75089;BME280;63673;49.928;8.150;2023-04-29T05:27:58;989.42;;;9.49;100
75089;BME280;63673;49.928;8.150;2023-04-29T05:28:59;989.42;;;9.48;100
75089;BME280;63673;49.928;8.150;2023-04-29T05:30:01;989.41;;;9.49;100
75089;BME280;63673;49.928;8.150;2023-04-29T05:31:03;989.46;;;9.49;100
75089;BME280;63673;49.928;8.150;2023-04-29T05:32:04;989.48;;;9.48;100
75089;BME280;63673;49.928;8.150;2023-04-29T05:33:06;989.5;;;9.48;100
75089;BME280;63673;49.928;8.150;2023-04-29T05:34:08;989.51;;;9.49;100
75089;BME280;63673;49.928;8.150;2023-04-29T05:35:10;989.57;;;9.49;100
75089;BME280;63673;49.928;8.150;2023-04-29T05:36:11;989.53;;;9.5;100
75089;BME280;63673;49.928;8.150;2023-04-29T05:37:13;989.54;;;9.52;100
75089;BME280;63673;49.928;8.150;2023-04-29T05:38:15;989.55;;;9.53;100
75089;BME280;63673;49.928;8.150;2023-04-29T05:39:17;989.56;;;9.55;100
75089;BME280;63673;49.928;8.150;2023-04-29T05:40:18;989.54;;;9.56;100
75089;BME280;63673;49.928;8.150;2023-04-29T05:41:20;989.58;;;9.58;100
75089;BME280;63673;49.928;8.150;2023-04-29T05:42:22;989.61;;;9.6;100
75089;BME280;63673;49.928;8.150;2023-04-29T05:43:24;989.61;;;9.62;100
75089;BME280;63673;49.928;8.150;2023-04-29T05:44:25;989.6;;;9.64;100
75089;BME280;63673;49.928;8.150;2023-04-29T05:45:27;989.56;;;9.65;100
75089;BME280;63673;49.928;8.150;2023-04-29T05:46:29;989.6;;;9.66;100
75089;BME280;63673;49.928;8.150;2023-04-29T05:47:30;989.55;;;9.68;100
75089;BME280;63673;49.928;8.150;2023-04-29T05:48:32;989.56;;;9.68;100
75089;BME280;63673;49.928;8.150;2023-04-29T05:49:34;989.6;;;9.68;100
75089;BME280;63673;49.928;8.150;2023-04-29T05:50:36;989.63;;;9.7;100
75089;BME280;63673;49.928;8.150;2023-04-29T05:51:37;989.68;;;9.71;100